Data for 08/30/2018

Time Sea-Level Adjusted Pressure Absolute Pressure Temperature Relative Humidity Dew Point   
(mb) (inHg) (mb) (inHg) (C) (F) (%) (C) (F)
00:05 1016 30 845 24.95 13.9 57 37 -0.6 31
00:10 1016 30 845 24.95 14 57.2 37 -0.6 31
00:15 1016 30 845 24.95 13.9 56.9 36 -0.7 30.7
00:20 1016 30 845 24.95 13.8 56.9 37 -0.6 30.9
00:25 1016 30 845 24.95 13.8 56.8 35 -1.2 29.8
00:30 1016 30 845 24.95 14 57.1 35 -1.2 29.9
00:35 1016 30 845 24.95 14.1 57.4 33 -1.9 28.5
00:40 1016 30 845 24.95 14.4 57.8 33 -1.7 29
00:45 1016 30 845 24.95 14.3 57.8 32 -2 28.5
00:50 1016 30 845 24.95 14.4 57.9 33 -1.7 29
00:55 1016 30 845 24.95 14.4 57.9 33 -1.5 29.2
01:00 1016 30 845 24.95 14 57.1 35 -1.1 30.1
01:05 1016 30 845 24.95 13.9 57 35 -1.4 29.5
01:10 1016 30 845 24.95 13.4 56 39 -0.3 31.4
01:15 1016 30 845 24.95 13.6 56.4 39 -0.2 31.7
01:20 1016 30 845 24.95 13.2 55.7 33 -2.6 27.2
01:25 1016 30 845 24.95 13.6 56.5 39 0.1 32.2
01:30 1016 30 845 24.95 12.5 54.6 39 -0.9 30.5
01:35 1016 30 845 24.95 12.7 54.9 38 -1.2 29.8
01:40 1016 30 845 24.95 13 55.3 39 -0.7 30.8
01:45 1016 30 845 24.95 12.4 54.3 39 -1 30.2
01:50 1016 30 845 24.95 12.5 54.4 39 -1.2 29.9
01:55 1016 30 845 24.95 12.4 54.4 40 -0.7 30.7
02:00 1016 30 845 24.95 12 53.5 43 -0.3 31.5
02:05 1016 30 845 24.95 11.8 53.3 41 -1 30.3
02:10 1016 30 845 24.95 12.3 54.1 39 -1.3 29.6
02:15 1016 30 846 24.98 12.8 55.1 35 -2.2 28.1
02:20 1016 30 846 24.98 13.3 55.9 34 -2.1 28.1
02:25 1016 30 846 24.98 12.8 55 41 0.1 32.1
02:30 1016 30 846 24.98 11.6 52.8 42 -0.7 30.7
02:35 1016 30 846 24.98 11.3 52.4 43 -0.7 30.8
02:40 1016 30 846 24.98 11.6 52.8 44 -0.2 31.7
02:45 1017 30.03 846 24.98 11.3 52.3 45 -0.1 31.8
02:50 1017 30.03 846 24.98 10.9 51.7 45 -0.5 31.2
02:55 1017 30.03 846 24.98 11.1 52 43 -0.8 30.5
03:00 1017 30.03 846 24.98 11.2 52.2 47 0.3 32.6
03:05 1017 30.03 846 24.98 10.7 51.2 49 0.3 32.6
03:10 1017 30.03 846 24.98 10.4 50.7 51 0.8 33.4
03:15 1017 30.03 846 24.98 9.8 49.6 53 0.7 33.3
03:20 1017 30.03 846 24.98 9.5 49.1 50 -0.4 31.2
03:25 1017 30.03 846 24.98 10 50 49 -0.2 31.7
03:30 1017 30.03 846 24.98 10.1 50.2 50 0.1 32.3
03:35 1017 30.03 846 24.98 9.9 49.9 50 0.1 32.1
03:40 1017 30.03 846 24.98 10.1 50.2 49 0 32
03:45 1017 30.03 846 24.98 10 50.1 51 0.4 32.7
03:50 1017 30.03 846 24.98 9.8 49.7 47 -0.8 30.5
03:55 1017 30.03 846 24.98 10.1 50.2 47 -0.6 31
04:00 1017 30.03 846 24.98 10.2 50.3 48 -0.3 31.4
04:05 1016 30 846 24.98 10.1 50.1 46 -1.1 30.1
04:10 1016 30 846 24.98 10.3 50.6 46 -0.8 30.6
04:15 1016 30 846 24.98 10.3 50.6 47 -0.6 31
04:20 1016 30 846 24.98 10.1 50.1 48 -0.4 31.4
04:25 1016 30 846 24.98 9.7 49.4 49 -0.4 31.3
04:30 1016 30 845 24.95 9.9 49.8 47 -0.7 30.7
04:35 1016 30 846 24.98 10.2 50.3 47 -0.6 30.9
04:40 1016 30 846 24.98 10.5 50.8 46 -0.6 31
04:45 1016 30 846 24.98 10.3 50.6 48 -0.3 31.5
04:50 1016 30 846 24.98 10.4 50.7 45 -0.9 30.3
04:55 1016 30 846 24.98 10.7 51.2 45 -0.8 30.5
05:00 1016 30 846 24.98 10.6 51 44 -1 30.2
05:05 1016 30 846 24.98 10.7 51.3 44 -1.1 30
05:10 1016 30 846 24.98 10.6 51 45 -0.9 30.4
05:15 1016 30 846 24.98 10.6 51.1 44 -1.1 30.1
05:20 1016 30 846 24.98 10.6 51 44 -1.3 29.7
05:25 1016 30 846 24.98 10.9 51.5 42 -1.5 29.3
05:30 1016 30 846 24.98 11.1 51.9 40 -1.8 28.7
05:35 1016 30 846 24.98 11.4 52.6 38 -2.3 27.8
05:40 1016 30 846 24.98 11.9 53.4 37 -2.2 28
05:45 1016 30 846 24.98 12 53.7 37 -2.1 28.2
05:50 1016 30 846 24.98 12.2 54 36 -2.4 27.7
05:55 1016 30 846 24.98 12.3 54.1 36 -2.1 28.1
06:00 1016 30 846 24.98 12.3 54.1 37 -1.9 28.5
06:05 1016 30 846 24.98 12.2 54 37 -2 28.5
06:10 1017 30.03 846 24.98 12 53.6 37 -2 28.4
06:15 1017 30.03 846 24.98 12.1 53.7 37 -2.1 28.3
06:20 1017 30.03 846 24.98 12 53.6 38 -2 28.4
06:25 1017 30.03 846 24.98 11.9 53.4 39 -1.4 29.4
06:30 1017 30.03 846 24.98 11.4 52.5 42 -1 30.2
06:35 1017 30.03 846 24.98 11.1 51.9 42 -1.2 29.9
06:40 1017 30.03 846 24.98 11.2 52.1 41 -1.5 29.3
06:45 1017 30.03 846 24.98 11.6 53 40 -1.6 29.1
06:50 1017 30.03 846 24.98 12.2 53.9 36 -2.3 27.9
06:55 1017 30.03 846 24.98 12.6 54.6 37 -1.6 29
07:00 1017 30.03 846 24.98 12.9 55.1 37 -1.5 29.3
07:05 1017 30.03 846 24.98 13 55.4 37 -1.4 29.5
07:10 1017 30.03 846 24.98 13.2 55.7 38 -0.8 30.6
07:15 1017 30.03 846 24.98 13.2 55.8 39 -0.4 31.3
07:20 1017 30.03 846 24.98 13.3 55.9 40 0.2 32.3
07:25 1017 30.03 846 24.98 13.4 56.1 40 0 32
07:30 1017 30.03 846 24.98 13.6 56.6 40 0.2 32.4
07:35 1017 30.03 846 24.98 14 57.1 38 -0.2 31.6
07:40 1017 30.03 846 24.98 14.3 57.8 38 0.3 32.5
07:45 1017 30.03 846 24.98 14.7 58.5 37 0.2 32.4
07:50 1017 30.03 846 24.98 15.2 59.3 38 0.9 33.6
07:55 1017 30.03 846 24.98 15.5 59.9 36 0.7 33.2
08:00 1017 30.03 846 24.98 15.7 60.3 36 1 33.7
08:05 1017 30.03 846 24.98 16 60.8 36 1.1 34
08:10 1017 30.03 846 24.98 16.8 62.2 32 -0.1 31.8
08:15 1017 30.03 846 24.98 17.1 62.7 33 0.8 33.5
08:20 1017 30.03 846 24.98 17.4 63.3 33 1.1 34
08:25 1017 30.03 846 24.98 17.1 62.8 30 -0.4 31.2
08:30 1017 30.03 846 24.98 17.5 63.5 30 -0.3 31.5
08:35 1017 30.03 846 24.98 17.3 63.2 30 -0.2 31.6
08:40 1017 30.03 846 24.98 16.9 62.4 34 0.9 33.6
08:45 1017 30.03 846 24.98 16.7 62 32 -0 32
08:50 1017 30.03 846 24.98 16.7 62.1 33 0.4 32.7
08:55 1017 30.03 846 24.98 17.1 62.7 34 1.2 34.1
09:00 1017 30.03 846 24.98 17.6 63.7 31 0.3 32.5
09:05 1017 30.03 846 24.98 17.5 63.4 31 0.2 32.3
09:10 1017 30.03 846 24.98 17.6 63.7 28 -0.8 30.6
09:15 1017 30.03 846 24.98 17.7 63.9 29 -0.4 31.3
09:20 1017 30.03 846 24.98 18.1 64.6 27 -1.2 29.8
09:25 1017 30.03 846 24.98 18.2 64.8 29 0.1 32.1
09:30 1017 30.03 846 24.98 18.3 65 28 -0.3 31.5
09:35 1017 30.03 846 24.98 19 66.3 29 0.7 33.2
09:40 1017 30.03 846 24.98 19.1 66.4 28 0.3 32.5
09:45 1017 30.03 846 24.98 18.5 65.2 30 0.9 33.7
09:50 1017 30.03 846 24.98 18.1 64.5 31 1 33.8
09:55 1017 30.03 846 24.98 18.3 64.9 33 1.9 35.4
10:00 1017 30.03 846 24.98 18.2 64.8 34 2.3 36.1
10:05 1017 30.03 846 24.98 18.3 64.9 36 3 37.4
10:10 1017 30.03 846 24.98 18.4 65.2 34 2.5 36.6
10:15 1017 30.03 846 24.98 18.3 64.9 34 2.2 36
10:20 1017 30.03 846 24.98 18 64.4 42 5.1 41.2
10:25 1017 30.03 846 24.98 17.9 64.2 38 3.5 38.2
10:30 1017 30.03 846 24.98 18.1 64.6 38 3.6 38.4
10:35 1017 30.03 846 24.98 18.4 65.1 35 2.7 36.9
10:40 1016 30 846 24.98 18.5 65.2 31 1.2 34.2
10:45 1016 30 846 24.98 18.6 65.5 34 2.4 36.4
10:50 1016 30 846 24.98 19.1 66.3 33 2.6 36.8
10:55 1016 30 846 24.98 19.9 67.9 31 2.5 36.5
11:00 1016 30 846 24.98 20.7 69.3 31 3.1 37.6
11:05 1016 30 845 24.95 21.2 70.2 30 3.2 37.8
11:10 1016 30 845 24.95 22.1 71.7 24 0.8 33.5
11:15 1016 30 845 24.95 23.1 73.6 23 1.2 34.2
11:20 1016 30 845 24.95 23.5 74.2 21 0.3 32.5
11:25 1016 30 845 24.95 23.5 74.3 20 -0.4 31.4
11:30 1016 30 845 24.95 23.5 74.3 20 -0.3 31.5
11:35 1016 30 845 24.95 23.4 74 21 0.1 32.2
11:40 1016 30 845 24.95 23.4 74 21 -0 32
11:45 1016 30 845 24.95 23.4 74.1 21 0.4 32.6
11:50 1016 30 845 24.95 23.1 73.6 22 0.6 33
11:55 1016 30 845 24.95 22.7 72.8 24 1.2 34.2
12:00 1016 30 845 24.95 22.3 72.1 24 1.1 34
12:05 1016 30 845 24.95 22.3 72.1 24 1.2 34.2
12:10 1016 30 845 24.95 22.6 72.7 24 1.2 34.1
12:15 1016 30 845 24.95 23 73.3 23 1.2 34.2
12:20 1016 30 845 24.95 23.1 73.6 22 0.5 32.8
12:25 1016 30 845 24.95 23 73.5 23 1.2 34.2
12:30 1016 30 845 24.95 23.4 74.2 21 0.4 32.6
12:35 1015 29.97 845 24.95 23.6 74.4 21 0.2 32.4
12:40 1015 29.97 845 24.95 23.9 75 20 -0.4 31.3
12:45 1015 29.97 845 24.95 24.1 75.4 20 -0.1 31.9
12:50 1015 29.97 844 24.92 24.4 75.8 20 0.2 32.4
12:55 1015 29.97 844 24.92 24.7 76.4 19 -0.4 31.4
13:00 1015 29.97 844 24.92 25 77 17 -1.1 30
13:05 1015 29.97 844 24.92 25.3 77.6 18 -0.2 31.7
13:10 1015 29.97 844 24.92 25.4 77.7 19 0.3 32.6
13:15 1015 29.97 844 24.92 25.3 77.5 18 -0.2 31.6
13:20 1015 29.97 844 24.92 25.2 77.3 17 -1.2 29.8
13:25 1015 29.97 844 24.92 25.1 77.2 17 -1.2 29.8
13:30 1015 29.97 844 24.92 25.2 77.4 15 -2.8 27
13:35 1015 29.97 844 24.92 25.5 78 16 -1.9 28.6
13:40 1015 29.97 844 24.92 25.6 78.1 16 -1.5 29.3
13:45 1015 29.97 844 24.92 25.3 77.5 18 -0.3 31.4
13:50 1015 29.97 844 24.92 25.4 77.8 19 0.2 32.3
13:55 1015 29.97 844 24.92 25.3 77.5 18 -0.4 31.3
14:00 1015 29.97 844 24.92 24.9 76.8 19 -0.2 31.6
14:05 1015 29.97 844 24.92 24.8 76.6 19 -0.3 31.4
14:10 1015 29.97 844 24.92 24.8 76.7 20 0.4 32.7
14:15 1015 29.97 844 24.92 24.7 76.5 21 1.2 34.2
14:20 1015 29.97 844 24.92 24.7 76.5 21 1.5 34.7
14:25 1015 29.97 844 24.92 24.6 76.3 22 1.5 34.7
14:30 1015 29.97 844 24.92 24.6 76.4 20 0.6 33.1
14:35 1015 29.97 844 24.92 24.5 76 22 1.5 34.6
14:40 1015 29.97 844 24.92 23.3 74 24 1.9 35.4
14:45 1015 29.97 844 24.92 22.7 72.8 27 2.8 37
14:50 1015 29.97 844 24.92 22.3 72.2 27 2.9 37.2
14:55 1015 29.97 844 24.92 22.1 71.7 28 3 37.3
15:00 1015 29.97 844 24.92 22.1 71.7 27 2.5 36.5
15:05 1015 29.97 845 24.95 22.2 72 27 2.4 36.3
15:10 1016 30 845 24.95 21.9 71.3 28 2.6 36.6
15:15 1016 30 845 24.95 21.7 71.1 27 2 35.7
15:20 1016 30 845 24.95 21.5 70.6 29 2.8 37.1
15:25 1016 30 845 24.95 20.7 69.3 30 2.7 36.9
15:30 1016 30 845 24.95 20.5 68.9 30 2.4 36.3
15:35 1016 30 845 24.95 20.5 69 29 2.2 36
15:40 1015 29.97 844 24.92 20.8 69.4 28 1.8 35.3
15:45 1015 29.97 844 24.92 20.9 69.6 29 2.4 36.3
15:50 1015 29.97 844 24.92 20.7 69.3 30 2.6 36.7
15:55 1015 29.97 844 24.92 20.7 69.3 29 2.4 36.3
16:00 1015 29.97 844 24.92 20.7 69.3 30 2.6 36.7
16:05 1015 29.97 844 24.92 20.7 69.2 31 2.9 37.3
16:10 1015 29.97 844 24.92 20.5 69 30 2.5 36.4
16:15 1015 29.97 844 24.92 20.7 69.2 29 2.3 36.1
16:20 1015 29.97 844 24.92 20.7 69.2 29 2.1 35.8
16:25 1015 29.97 844 24.92 20.9 69.6 28 1.7 35
16:30 1015 29.97 844 24.92 21.2 70.1 27 1.8 35.2
16:35 1015 29.97 844 24.92 21.2 70.1 28 1.9 35.5
16:40 1015 29.97 844 24.92 21.1 70 28 2 35.6
16:45 1015 29.97 844 24.92 21.3 70.3 25 0.6 33.1
16:50 1015 29.97 844 24.92 21.6 70.9 25 0.8 33.5
16:55 1015 29.97 844 24.92 21.6 70.9 26 1.7 35
17:00 1015 29.97 844 24.92 21.5 70.6 27 1.7 35.1
17:05 1015 29.97 844 24.92 21.5 70.6 27 2 35.6
17:10 1015 29.97 844 24.92 21.4 70.6 27 1.6 34.9
17:15 1015 29.97 844 24.92 21.5 70.7 27 1.8 35.2
17:20 1015 29.97 844 24.92 21.5 70.7 27 1.7 35
17:25 1015 29.97 844 24.92 21.4 70.6 26 1.6 34.8
17:30 1015 29.97 844 24.92 21.5 70.6 27 1.7 35.1
17:35 1015 29.97 844 24.92 21.4 70.4 28 2 35.7
17:40 1015 29.97 844 24.92 21.2 70.1 28 2.4 36.2
17:45 1015 29.97 844 24.92 21 69.9 29 2.4 36.3
17:50 1015 29.97 844 24.92 21 69.8 29 2.4 36.2
17:55 1015 29.97 844 24.92 21 69.7 29 2.4 36.3
18:00 1015 29.97 844 24.92 20.9 69.6 29 2.4 36.3
18:05 1015 29.97 844 24.92 20.8 69.5 29 2.1 35.8
18:10 1015 29.97 844 24.92 20.9 69.7 28 2.1 35.8
18:15 1015 29.97 844 24.92 20.9 69.6 28 2 35.6
18:20 1014 29.94 844 24.92 20.9 69.6 28 1.9 35.5
18:25 1014 29.94 844 24.92 21 69.7 29 2.4 36.3
18:30 1014 29.94 844 24.92 20.8 69.4 30 2.9 37.2
18:35 1015 29.97 844 24.92 20.4 68.8 31 2.9 37.3
18:40 1015 29.97 844 24.92 20.3 68.5 31 2.9 37.3
18:45 1015 29.97 844 24.92 20.1 68.3 31 2.8 37.1
18:50 1015 29.97 844 24.92 20 68 32 2.8 37.1
18:55 1015 29.97 844 24.92 20 68 31 2.6 36.7
19:00 1015 29.97 844 24.92 20.2 68.3 31 2.5 36.5
19:05 1015 29.97 844 24.92 20.2 68.3 31 2.9 37.2
19:10 1015 29.97 844 24.92 19.9 67.9 32 3.1 37.5
19:15 1015 29.97 845 24.95 19.7 67.4 33 2.9 37.2
19:20 1015 29.97 845 24.95 19.5 67.1 34 3.2 37.8
19:25 1016 30 845 24.95 19.2 66.5 34 3.2 37.8
19:30 1016 30 845 24.95 19 66.2 35 3.4 38.1
19:35 1016 30 845 24.95 18.8 65.9 36 3.5 38.3
19:40 1016 30 845 24.95 18.6 65.5 35 3.2 37.7
19:45 1016 30 845 24.95 18.6 65.5 36 3.5 38.3
19:50 1016 30 845 24.95 18.5 65.3 37 3.6 38.5
19:55 1016 30 845 24.95 18.3 65 38 3.7 38.7
20:00 1016 30 845 24.95 18.3 64.9 39 4.1 39.3
20:05 1016 30 845 24.95 18.2 64.8 40 4.5 40
20:10 1016 30 845 24.95 18 64.4 41 4.8 40.6
20:15 1016 30 845 24.95 17.8 64 42 4.9 40.7
20:20 1016 30 846 24.98 17.6 63.7 43 5.1 41.1
20:25 1016 30 846 24.98 17.3 63.2 44 5.2 41.3
20:30 1016 30 846 24.98 17 62.5 45 5.1 41.1
20:35 1016 30 846 24.98 16.8 62.3 45 5 41.1
20:40 1016 30 846 24.98 16.8 62.2 45 4.8 40.7
20:45 1017 30.03 846 24.98 16.8 62.2 44 4.7 40.5
20:50 1017 30.03 846 24.98 16.8 62.3 44 4.5 40
20:55 1017 30.03 846 24.98 17.1 62.7 41 3.9 39.1
21:00 1017 30.03 846 24.98 17.3 63.2 40 3.9 39
21:05 1017 30.03 846 24.98 17.3 63.2 41 4.2 39.5
21:10 1017 30.03 846 24.98 17 62.5 43 4.3 39.8
21:15 1017 30.03 846 24.98 16.8 62.3 41 3.7 38.6
21:20 1017 30.03 846 24.98 17 62.6 42 4.2 39.6
21:25 1017 30.03 846 24.98 16.8 62.3 44 4.7 40.5
21:30 1017 30.03 846 24.98 16.1 61.1 46 4.7 40.5
21:35 1017 30.03 846 24.98 15.5 59.9 48 4.6 40.3
21:40 1017 30.03 846 24.98 15.4 59.8 47 4.2 39.5
21:45 1017 30.03 846 24.98 15.4 59.8 47 4.2 39.5
21:50 1017 30.03 846 24.98 15.4 59.7 49 4.8 40.7
21:55 1017 30.03 846 24.98 15.2 59.3 50 4.9 40.7
22:00 1017 30.03 846 24.98 14.9 58.8 51 4.9 40.8
22:05 1017 30.03 846 24.98 14.7 58.4 53 5.2 41.3
22:10 1017 30.03 846 24.98 14.3 57.7 54 5.2 41.4
22:15 1017 30.03 846 24.98 13.9 57 56 5.3 41.5
22:20 1017 30.03 846 24.98 13.6 56.5 55 4.8 40.6
22:25 1017 30.03 846 24.98 13.8 56.8 53 4.4 39.9
22:30 1017 30.03 846 24.98 14 57.2 53 4.6 40.3
22:35 1017 30.03 846 24.98 14.1 57.3 50 3.9 39.1
22:40 1017 30.03 846 24.98 14.5 58 46 3.2 37.8
22:45 1017 30.03 846 24.98 15 59.1 45 3.2 37.8
22:50 1017 30.03 846 24.98 15.2 59.4 46 3.8 38.8
22:55 1017 30.03 846 24.98 14.8 58.7 51 4.9 40.9
23:00 1017 30.03 846 24.98 14 57.2 54 4.8 40.6
23:05 1017 30.03 846 24.98 13.6 56.5 55 4.7 40.5
23:10 1017 30.03 846 24.98 13.4 56.1 56 4.8 40.6
23:15 1017 30.03 846 24.98 13.3 56 56 4.7 40.4
23:20 1017 30.03 846 24.98 13.3 55.9 54 4.3 39.8
23:25 1017 30.03 846 24.98 13.3 55.9 55 4.4 39.9
23:30 1017 30.03 846 24.98 13.3 55.9 54 4.3 39.8
23:35 1017 30.03 846 24.98 13.1 55.7 55 4.4 39.9
23:40 1017 30.03 846 24.98 13 55.4 54 4.1 39.3
23:45 1017 30.03 846 24.98 13 55.3 54 4.1 39.3
23:50 1017 30.03 846 24.98 12.9 55.3 55 4.2 39.6
23:55 1017 30.03 846 24.98 12.8 55.1 55 4.2 39.5
24:00 1017 30.03 846 24.98 12.7 54.8 56 4.2 39.6